sensor_id;sensor_type;location;lat;lon;timestamp;pressure;altitude;pressure_sealevel;temperature;humidity
46111;BME280;31849;55.992;37.252;2023-01-30T00:03:16;98165.25;;;-1.07;60.59
46111;BME280;31849;55.992;37.252;2023-01-30T00:08:20;98143.94;;;-1.07;60.91
46111;BME280;31849;55.992;37.252;2023-01-30T00:13:24;98143.63;;;-1.21;61.26
46111;BME280;31849;55.992;37.252;2023-01-30T00:18:28;98127.41;;;-1.25;61.36
46111;BME280;31849;55.992;37.252;2023-01-30T00:23:35;98115.69;;;-1.16;61.39
46111;BME280;31849;55.992;37.252;2023-01-30T00:28:39;98125.38;;;-1.01;61.00
46111;BME280;31849;55.992;37.252;2023-01-30T00:33:43;98123.09;;;-0.89;60.89
46111;BME280;31849;55.992;37.252;2023-01-30T00:38:47;98117.03;;;-0.94;61.35
46111;BME280;31849;55.992;37.252;2023-01-30T00:43:51;98115.28;;;-0.95;61.04
46111;BME280;31849;55.992;37.252;2023-01-30T00:49:12;98099.81;;;-1.03;61.25
46111;BME280;31849;55.992;37.252;2023-01-30T00:54:17;98105.84;;;-1.01;61.85
46111;BME280;31849;55.992;37.252;2023-01-30T00:59:20;98095.81;;;-0.92;61.53
46111;BME280;31849;55.992;37.252;2023-01-30T01:04:24;98086.09;;;-1.10;61.66
46111;BME280;31849;55.992;37.252;2023-01-30T01:09:29;98094.69;;;-1.04;61.37
46111;BME280;31849;55.992;37.252;2023-01-30T01:14:33;98086.84;;;-1.14;62.07
46111;BME280;31849;55.992;37.252;2023-01-30T01:19:36;98074.38;;;-1.00;61.44
46111;BME280;31849;55.992;37.252;2023-01-30T01:24:41;98068.09;;;-0.75;61.06
46111;BME280;31849;55.992;37.252;2023-01-30T01:29:44;98053.41;;;-0.85;61.10
46111;BME280;31849;55.992;37.252;2023-01-30T01:34:48;98046.38;;;-0.97;61.46
46111;BME280;31849;55.992;37.252;2023-01-30T01:39:53;98037.59;;;-1.11;61.60
46111;BME280;31849;55.992;37.252;2023-01-30T01:45:17;98036.72;;;-1.12;61.41
46111;BME280;31849;55.992;37.252;2023-01-30T01:50:23;98023.16;;;-1.09;61.75
46111;BME280;31849;55.992;37.252;2023-01-30T01:55:29;97998.25;;;-1.22;61.84
46111;BME280;31849;55.992;37.252;2023-01-30T02:00:33;98005.22;;;-1.14;61.93
46111;BME280;31849;55.992;37.252;2023-01-30T02:05:41;98000.16;;;-1.12;61.70
46111;BME280;31849;55.992;37.252;2023-01-30T02:10:51;97989.38;;;-1.40;62.80
46111;BME280;31849;55.992;37.252;2023-01-30T02:15:57;97989.47;;;-1.35;62.46
46111;BME280;31849;55.992;37.252;2023-01-30T02:21:39;97975.38;;;-1.18;62.61
46111;BME280;31849;55.992;37.252;2023-01-30T02:32:21;97953.09;;;-1.27;62.57
46111;BME280;31849;55.992;37.252;2023-01-30T02:37:35;97942.91;;;-1.27;62.48
46111;BME280;31849;55.992;37.252;2023-01-30T02:42:43;97922.16;;;-1.44;63.57
46111;BME280;31849;55.992;37.252;2023-01-30T02:47:56;97920.31;;;-1.51;62.90
46111;BME280;31849;55.992;37.252;2023-01-30T02:53:03;97914.50;;;-1.45;63.21
46111;BME280;31849;55.992;37.252;2023-01-30T02:58:07;97918.34;;;-1.23;62.62
46111;BME280;31849;55.992;37.252;2023-01-30T03:03:23;97904.06;;;-1.12;62.67
46111;BME280;31849;55.992;37.252;2023-01-30T03:08:35;97895.59;;;-1.11;62.60
46111;BME280;31849;55.992;37.252;2023-01-30T03:13:48;97886.38;;;-1.48;63.47
46111;BME280;31849;55.992;37.252;2023-01-30T03:18:56;97878.31;;;-1.26;62.91
46111;BME280;31849;55.992;37.252;2023-01-30T03:24:02;97866.94;;;-1.43;63.22
46111;BME280;31849;55.992;37.252;2023-01-30T03:29:05;97866.41;;;-1.25;63.06
46111;BME280;31849;55.992;37.252;2023-01-30T03:34:10;97854.97;;;-1.46;63.10
46111;BME280;31849;55.992;37.252;2023-01-30T03:39:13;97853.19;;;-1.51;63.53
46111;BME280;31849;55.992;37.252;2023-01-30T03:44:17;97846.53;;;-1.43;63.23
46111;BME280;31849;55.992;37.252;2023-01-30T03:49:22;97842.44;;;-1.36;63.23
46111;BME280;31849;55.992;37.252;2023-01-30T03:54:26;97845.59;;;-1.48;63.42
46111;BME280;31849;55.992;37.252;2023-01-30T03:59:29;97836.41;;;-1.40;63.08
46111;BME280;31849;55.992;37.252;2023-01-30T04:04:34;97821.47;;;-1.20;62.71
46111;BME280;31849;55.992;37.252;2023-01-30T04:09:37;97812.13;;;-1.19;62.63
46111;BME280;31849;55.992;37.252;2023-01-30T04:14:41;97796.81;;;-1.19;62.53
46111;BME280;31849;55.992;37.252;2023-01-30T04:19:46;97783.78;;;-1.36;62.84
46111;BME280;31849;55.992;37.252;2023-01-30T04:24:50;97776.88;;;-1.42;63.16
46111;BME280;31849;55.992;37.252;2023-01-30T04:29:53;97772.81;;;-1.31;63.14
46111;BME280;31849;55.992;37.252;2023-01-30T04:34:58;97770.06;;;-1.43;63.11
46111;BME280;31849;55.992;37.252;2023-01-30T04:40:05;97764.00;;;-1.50;62.97
46111;BME280;31849;55.992;37.252;2023-01-30T04:45:08;97743.72;;;-1.44;63.21
46111;BME280;31849;55.992;37.252;2023-01-30T04:50:13;97736.00;;;-1.47;63.06
46111;BME280;31849;55.992;37.252;2023-01-30T04:55:17;97739.69;;;-1.29;62.48
46111;BME280;31849;55.992;37.252;2023-01-30T05:00:21;97729.06;;;-1.55;63.07
46111;BME280;31849;55.992;37.252;2023-01-30T05:05:27;97721.84;;;-1.29;62.49
46111;BME280;31849;55.992;37.252;2023-01-30T05:10:30;97712.72;;;-1.16;62.37
46111;BME280;31849;55.992;37.252;2023-01-30T05:15:34;97703.28;;;-1.20;62.38
46111;BME280;31849;55.992;37.252;2023-01-30T05:20:39;97696.56;;;-1.17;62.32
46111;BME280;31849;55.992;37.252;2023-01-30T05:25:42;97693.06;;;-1.22;62.51
46111;BME280;31849;55.992;37.252;2023-01-30T05:30:46;97690.97;;;-0.93;62.02
46111;BME280;31849;55.992;37.252;2023-01-30T05:35:51;97683.06;;;-1.10;62.55
46111;BME280;31849;55.992;37.252;2023-01-30T05:40:57;97673.53;;;-1.21;62.43
46111;BME280;31849;55.992;37.252;2023-01-30T05:46:04;97665.88;;;-1.21;62.91
46111;BME280;31849;55.992;37.252;2023-01-30T05:51:16;97654.34;;;-0.96;61.83
46111;BME280;31849;55.992;37.252;2023-01-30T05:56:20;97655.19;;;-0.97;61.92
46111;BME280;31849;55.992;37.252;2023-01-30T06:01:25;97655.91;;;-1.06;62.43
46111;BME280;31849;55.992;37.252;2023-01-30T06:06:30;97656.97;;;-0.92;62.03
46111;BME280;31849;55.992;37.252;2023-01-30T06:11:34;97650.19;;;-0.90;61.78
46111;BME280;31849;55.992;37.252;2023-01-30T06:16:37;97643.22;;;-1.00;62.05
46111;BME280;31849;55.992;37.252;2023-01-30T06:21:42;97658.56;;;-0.97;62.00
46111;BME280;31849;55.992;37.252;2023-01-30T06:26:46;97644.81;;;-1.10;62.38
46111;BME280;31849;55.992;37.252;2023-01-30T06:31:49;97638.34;;;-0.86;62.23
46111;BME280;31849;55.992;37.252;2023-01-30T06:36:54;97630.50;;;-0.98;62.15
46111;BME280;31849;55.992;37.252;2023-01-30T06:41:58;97625.38;;;-0.98;62.19
46111;BME280;31849;55.992;37.252;2023-01-30T06:47:01;97628.78;;;-1.01;62.43
46111;BME280;31849;55.992;37.252;2023-01-30T06:52:06;97621.72;;;-1.17;62.60
46111;BME280;31849;55.992;37.252;2023-01-30T06:57:10;97618.66;;;-0.95;62.15
46111;BME280;31849;55.992;37.252;2023-01-30T07:02:14;97598.19;;;-0.99;62.60
46111;BME280;31849;55.992;37.252;2023-01-30T07:07:20;97595.78;;;-0.89;62.07
46111;BME280;31849;55.992;37.252;2023-01-30T07:12:24;97596.53;;;-0.94;62.57
46111;BME280;31849;55.992;37.252;2023-01-30T07:17:28;97588.44;;;-0.64;61.90
46111;BME280;31849;55.992;37.252;2023-01-30T07:22:32;97586.66;;;-0.69;62.08
46111;BME280;31849;55.992;37.252;2023-01-30T07:27:36;97581.63;;;-0.62;61.96
46111;BME280;31849;55.992;37.252;2023-01-30T07:32:39;97570.75;;;-0.47;61.67
46111;BME280;31849;55.992;37.252;2023-01-30T07:37:45;97563.84;;;-0.56;62.21
46111;BME280;31849;55.992;37.252;2023-01-30T07:42:56;97554.38;;;-0.64;62.04
46111;BME280;31849;55.992;37.252;2023-01-30T07:48:00;97564.09;;;-0.32;61.53
46111;BME280;31849;55.992;37.252;2023-01-30T07:53:06;97537.44;;;-0.58;62.50
46111;BME280;31849;55.992;37.252;2023-01-30T07:58:12;97535.81;;;-0.49;62.19
46111;BME280;31849;55.992;37.252;2023-01-30T08:03:16;97525.53;;;-0.57;62.80
46111;BME280;31849;55.992;37.252;2023-01-30T08:08:21;97514.59;;;-0.45;62.54
46111;BME280;31849;55.992;37.252;2023-01-30T08:13:24;97519.00;;;-0.27;62.11
46111;BME280;31849;55.992;37.252;2023-01-30T08:18:28;97519.78;;;-0.36;62.16
46111;BME280;31849;55.992;37.252;2023-01-30T08:23:33;97504.72;;;-0.08;61.98
46111;BME280;31849;55.992;37.252;2023-01-30T08:28:38;97504.03;;;0.14;61.61
46111;BME280;31849;55.992;37.252;2023-01-30T08:33:42;97503.28;;;0.31;61.25
46111;BME280;31849;55.992;37.252;2023-01-30T08:38:47;97489.78;;;0.50;61.07
46111;BME280;31849;55.992;37.252;2023-01-30T08:43:50;97484.72;;;0.58;60.72
46111;BME280;31849;55.992;37.252;2023-01-30T08:48:54;97482.00;;;0.35;61.37
46111;BME280;31849;55.992;37.252;2023-01-30T08:53:59;97468.56;;;0.68;60.46
46111;BME280;31849;55.992;37.252;2023-01-30T08:59:02;97468.28;;;0.21;61.11
46111;BME280;31849;55.992;37.252;2023-01-30T09:04:06;97458.22;;;0.44;61.07
46111;BME280;31849;55.992;37.252;2023-01-30T09:09:11;97444.47;;;0.26;61.54
46111;BME280;31849;55.992;37.252;2023-01-30T09:14:15;97450.31;;;0.08;61.80
46111;BME280;31849;55.992;37.252;2023-01-30T09:19:20;97428.31;;;0.29;60.63
46111;BME280;31849;55.992;37.252;2023-01-30T09:24:25;97425.81;;;0.43;61.09
46111;BME280;31849;55.992;37.252;2023-01-30T09:29:29;97428.19;;;0.10;61.89
46111;BME280;31849;55.992;37.252;2023-01-30T09:34:32;97406.16;;;0.35;61.33
46111;BME280;31849;55.992;37.252;2023-01-30T09:39:37;97405.47;;;0.67;60.83
46111;BME280;31849;55.992;37.252;2023-01-30T09:44:53;97396.00;;;0.40;61.39
46111;BME280;31849;55.992;37.252;2023-01-30T09:50:22;97397.69;;;0.47;61.05
46111;BME280;31849;55.992;37.252;2023-01-30T09:55:37;97389.22;;;0.59;60.67
46111;BME280;31849;55.992;37.252;2023-01-30T10:00:42;97373.94;;;0.70;60.99
46111;BME280;31849;55.992;37.252;2023-01-30T10:05:49;97377.25;;;0.50;60.66
46111;BME280;31849;55.992;37.252;2023-01-30T10:11:01;97358.53;;;0.59;60.34
46111;BME280;31849;55.992;37.252;2023-01-30T10:16:17;97358.59;;;0.78;60.69
46111;BME280;31849;55.992;37.252;2023-01-30T10:21:34;97349.19;;;0.63;61.14
46111;BME280;31849;55.992;37.252;2023-01-30T10:26:41;97342.44;;;0.91;60.91
46111;BME280;31849;55.992;37.252;2023-01-30T10:31:47;97341.53;;;0.67;60.97
46111;BME280;31849;55.992;37.252;2023-01-30T10:36:56;97330.47;;;0.79;61.28
46111;BME280;31849;55.992;37.252;2023-01-30T10:42:08;97320.25;;;0.99;60.95
46111;BME280;31849;55.992;37.252;2023-01-30T10:47:38;97304.91;;;0.92;61.44
46111;BME280;31849;55.992;37.252;2023-01-30T10:52:54;97312.56;;;0.98;60.78
46111;BME280;31849;55.992;37.252;2023-01-30T10:58:08;97287.81;;;0.87;61.22
46111;BME280;31849;55.992;37.252;2023-01-30T11:03:20;97273.31;;;0.59;62.56
46111;BME280;31849;55.992;37.252;2023-01-30T11:08:27;97268.19;;;0.68;62.15
46111;BME280;31849;55.992;37.252;2023-01-30T11:13:33;97271.63;;;0.82;61.62
46111;BME280;31849;55.992;37.252;2023-01-30T11:18:44;97259.69;;;0.81;62.00
46111;BME280;31849;55.992;37.252;2023-01-30T11:24:14;97252.00;;;0.87;61.63
46111;BME280;31849;55.992;37.252;2023-01-30T11:29:27;97246.91;;;0.86;61.88
46111;BME280;31849;55.992;37.252;2023-01-30T11:34:31;97234.09;;;0.81;62.01
46111;BME280;31849;55.992;37.252;2023-01-30T11:39:35;97242.63;;;1.00;61.60
46111;BME280;31849;55.992;37.252;2023-01-30T11:44:40;97234.94;;;0.66;62.19
46111;BME280;31849;55.992;37.252;2023-01-30T11:49:47;97239.22;;;0.63;62.71
46111;BME280;31849;55.992;37.252;2023-01-30T11:55:15;97234.94;;;0.68;61.98
46111;BME280;31849;55.992;37.252;2023-01-30T12:00:24;97229.00;;;0.80;61.96
46111;BME280;31849;55.992;37.252;2023-01-30T12:05:32;97226.44;;;0.83;62.23
46111;BME280;31849;55.992;37.252;2023-01-30T12:10:40;97224.75;;;0.85;62.11
46111;BME280;31849;55.992;37.252;2023-01-30T12:15:47;97227.28;;;0.62;62.55
46111;BME280;31849;55.992;37.252;2023-01-30T12:20:58;97211.09;;;0.80;62.63
46111;BME280;31849;55.992;37.252;2023-01-30T12:26:06;97219.59;;;0.69;62.83
46111;BME280;31849;55.992;37.252;2023-01-30T12:31:18;97209.38;;;0.69;62.58
46111;BME280;31849;55.992;37.252;2023-01-30T12:36:30;97199.97;;;0.61;62.68
46111;BME280;31849;55.992;37.252;2023-01-30T12:41:54;97197.41;;;0.42;63.12
46111;BME280;31849;55.992;37.252;2023-01-30T12:47:17;97190.59;;;0.43;62.81
46111;BME280;31849;55.992;37.252;2023-01-30T12:52:44;97178.69;;;0.51;63.07
46111;BME280;31849;55.992;37.252;2023-01-30T12:57:58;97167.59;;;0.50;62.68
46111;BME280;31849;55.992;37.252;2023-01-30T13:03:18;97169.25;;;0.04;63.72
46111;BME280;31849;55.992;37.252;2023-01-30T13:13:51;97149.72;;;0.63;63.01
46111;BME280;31849;55.992;37.252;2023-01-30T13:19:02;97153.09;;;0.28;63.58
46111;BME280;31849;55.992;37.252;2023-01-30T13:24:16;97122.41;;;0.32;63.16
46111;BME280;31849;55.992;37.252;2023-01-30T13:29:27;97136.06;;;0.34;63.01
46111;BME280;31849;55.992;37.252;2023-01-30T13:34:35;97130.09;;;0.25;63.85
46111;BME280;31849;55.992;37.252;2023-01-30T13:39:44;97113.03;;;0.05;64.19
46111;BME280;31849;55.992;37.252;2023-01-30T13:44:54;97125.72;;;-0.23;65.24
46111;BME280;31849;55.992;37.252;2023-01-30T13:55:34;97124.97;;;0.12;66.92
46111;BME280;31849;55.992;37.252;2023-01-30T14:00:50;97122.41;;;0.09;64.91
46111;BME280;31849;55.992;37.252;2023-01-30T14:06:11;97128.34;;;0.07;65.02
46111;BME280;31849;55.992;37.252;2023-01-30T14:11:32;97113.03;;;0.11;65.30
46111;BME280;31849;55.992;37.252;2023-01-30T14:16:41;97105.38;;;0.36;64.02
46111;BME280;31849;55.992;37.252;2023-01-30T14:21:54;97101.13;;;0.13;65.07
46111;BME280;31849;55.992;37.252;2023-01-30T14:27:03;97114.75;;;0.15;64.28
46111;BME280;31849;55.992;37.252;2023-01-30T14:32:52;97101.13;;;0.54;63.48
46111;BME280;31849;55.992;37.252;2023-01-30T14:38:12;97104.53;;;0.51;63.37
46111;BME280;31849;55.992;37.252;2023-01-30T14:43:46;97117.31;;;0.48;63.52
46111;BME280;31849;55.992;37.252;2023-01-30T14:48:56;97113.91;;;0.29;63.63
46111;BME280;31849;55.992;37.252;2023-01-30T14:54:06;97090.03;;;0.51;63.26
46111;BME280;31849;55.992;37.252;2023-01-30T14:59:22;97104.53;;;0.48;63.08
46111;BME280;31849;55.992;37.252;2023-01-30T15:04:30;97090.91;;;0.40;62.28
46111;BME280;31849;55.992;37.252;2023-01-30T15:09:37;97085.78;;;0.44;62.40
46111;BME280;31849;55.992;37.252;2023-01-30T15:14:52;97086.63;;;0.56;62.38
46111;BME280;31849;55.992;37.252;2023-01-30T15:20:16;97085.75;;;0.09;62.19
46111;BME280;31849;55.992;37.252;2023-01-30T15:25:38;97081.50;;;0.56;62.96
46111;BME280;31849;55.992;37.252;2023-01-30T15:30:54;97085.78;;;0.61;62.04
46111;BME280;31849;55.992;37.252;2023-01-30T15:36:17;97064.44;;;0.59;61.09
46111;BME280;31849;55.992;37.252;2023-01-30T15:41:22;97071.28;;;0.62;61.70
46111;BME280;31849;55.992;37.252;2023-01-30T15:46:34;97077.25;;;0.58;61.40
46111;BME280;31849;55.992;37.252;2023-01-30T15:51:41;97085.78;;;0.29;62.25
46111;BME280;31849;55.992;37.252;2023-01-30T15:56:47;97080.69;;;0.57;61.94
46111;BME280;31849;55.992;37.252;2023-01-30T16:01:58;97069.59;;;0.45;62.12
46111;BME280;31849;55.992;37.252;2023-01-30T16:07:14;97078.97;;;0.43;62.29
46111;BME280;31849;55.992;37.252;2023-01-30T16:12:26;97086.63;;;0.37;61.89
46111;BME280;31849;55.992;37.252;2023-01-30T16:17:30;97081.50;;;0.34;62.63
46111;BME280;31849;55.992;37.252;2023-01-30T16:22:34;97077.28;;;0.38;62.61
46111;BME280;31849;55.992;37.252;2023-01-30T16:27:41;97076.41;;;0.32;62.46
46111;BME280;31849;55.992;37.252;2023-01-30T16:32:45;97084.09;;;0.14;62.84
46111;BME280;31849;55.992;37.252;2023-01-30T16:37:48;97073.84;;;0.23;62.72
46111;BME280;31849;55.992;37.252;2023-01-30T16:42:56;97072.16;;;0.33;62.97
46111;BME280;31849;55.992;37.252;2023-01-30T16:48:23;97069.59;;;0.34;62.75
46111;BME280;31849;55.992;37.252;2023-01-30T16:53:32;97072.16;;;0.28;62.70
46111;BME280;31849;55.992;37.252;2023-01-30T16:58:37;97071.28;;;0.31;63.16
46111;BME280;31849;55.992;37.252;2023-01-30T17:03:49;97070.44;;;0.37;63.15
46111;BME280;31849;55.992;37.252;2023-01-30T17:08:54;97070.44;;;0.38;62.79
46111;BME280;31849;55.992;37.252;2023-01-30T17:14:27;97061.94;;;0.36;63.15
46111;BME280;31849;55.992;37.252;2023-01-30T17:19:33;97055.97;;;0.42;63.17
46111;BME280;31849;55.992;37.252;2023-01-30T17:24:37;97060.22;;;0.52;62.53
46111;BME280;31849;55.992;37.252;2023-01-30T17:29:42;97062.75;;;0.44;62.75
46111;BME280;31849;55.992;37.252;2023-01-30T17:34:49;97073.88;;;0.46;62.20
46111;BME280;31849;55.992;37.252;2023-01-30T17:39:52;97073.84;;;0.37;62.62
46111;BME280;31849;55.992;37.252;2023-01-30T17:44:59;97066.19;;;0.48;61.96
46111;BME280;31849;55.992;37.252;2023-01-30T17:50:05;97081.53;;;0.29;62.37
46111;BME280;31849;55.992;37.252;2023-01-30T17:55:10;97070.44;;;0.40;62.25
46111;BME280;31849;55.992;37.252;2023-01-30T18:00:18;97061.06;;;0.25;62.57
46111;BME280;31849;55.992;37.252;2023-01-30T18:05:23;97061.91;;;0.25;62.32
46111;BME280;31849;55.992;37.252;2023-01-30T18:10:27;97068.75;;;0.20;62.53
46111;BME280;31849;55.992;37.252;2023-01-30T18:15:35;97061.94;;;0.13;62.58
46111;BME280;31849;55.992;37.252;2023-01-30T18:20:39;97053.38;;;-0.03;63.02
46111;BME280;31849;55.992;37.252;2023-01-30T18:25:42;97063.63;;;0.19;62.99
46111;BME280;31849;55.992;37.252;2023-01-30T18:30:47;97058.53;;;0.15;63.02
46111;BME280;31849;55.992;37.252;2023-01-30T18:35:51;97054.25;;;0.19;62.85
46111;BME280;31849;55.992;37.252;2023-01-30T18:40:54;97056.81;;;0.14;63.13
46111;BME280;31849;55.992;37.252;2023-01-30T18:46:04;97049.16;;;0.14;62.82
46111;BME280;31849;55.992;37.252;2023-01-30T18:51:10;97048.31;;;0.19;62.79
46111;BME280;31849;55.992;37.252;2023-01-30T18:56:15;97059.38;;;0.21;62.76
46111;BME280;31849;55.992;37.252;2023-01-30T19:01:22;97056.81;;;0.13;63.28
46111;BME280;31849;55.992;37.252;2023-01-30T19:06:27;97059.38;;;0.10;62.96
46111;BME280;31849;55.992;37.252;2023-01-30T19:11:30;97057.66;;;0.40;61.56
46111;BME280;31849;55.992;37.252;2023-01-30T19:16:53;97046.63;;;0.27;62.14
46111;BME280;31849;55.992;37.252;2023-01-30T19:21:56;97050.88;;;0.39;62.02
46111;BME280;31849;55.992;37.252;2023-01-30T19:27:02;97057.69;;;0.20;62.31
46111;BME280;31849;55.992;37.252;2023-01-30T19:32:10;97054.25;;;0.05;62.66
46111;BME280;31849;55.992;37.252;2023-01-30T19:37:13;97050.03;;;0.18;62.41
46111;BME280;31849;55.992;37.252;2023-01-30T19:42:19;97050.84;;;-0.03;62.96
46111;BME280;31849;55.992;37.252;2023-01-30T19:47:24;97049.16;;;0.30;62.72
46111;BME280;31849;55.992;37.252;2023-01-30T19:52:27;97047.47;;;0.21;62.29
46111;BME280;31849;55.992;37.252;2023-01-30T19:57:31;97057.66;;;0.07;62.94
46111;BME280;31849;55.992;37.252;2023-01-30T20:02:36;97058.53;;;0.11;62.98
46111;BME280;31849;55.992;37.252;2023-01-30T20:07:39;97065.34;;;0.21;63.15
46111;BME280;31849;55.992;37.252;2023-01-30T20:12:43;97059.38;;;0.16;62.85
46111;BME280;31849;55.992;37.252;2023-01-30T20:17:48;97055.94;;;-0.06;63.98
46111;BME280;31849;55.992;37.252;2023-01-30T20:22:51;97060.22;;;-0.24;64.39
46111;BME280;31849;55.992;37.252;2023-01-30T20:27:55;97059.31;;;-0.44;64.73
46111;BME280;31849;55.992;37.252;2023-01-30T20:33:00;97083.13;;;-0.38;64.40
46111;BME280;31849;55.992;37.252;2023-01-30T20:38:03;97057.63;;;-0.31;64.35
46111;BME280;31849;55.992;37.252;2023-01-30T20:43:07;97061.03;;;-0.23;64.15
46111;BME280;31849;55.992;37.252;2023-01-30T20:48:12;97057.63;;;-0.30;64.41
46111;BME280;31849;55.992;37.252;2023-01-30T20:53:15;97047.44;;;-0.16;63.85
46111;BME280;31849;55.992;37.252;2023-01-30T20:58:19;97051.72;;;-0.07;63.82
46111;BME280;31849;55.992;37.252;2023-01-30T21:03:24;97055.09;;;0.07;63.95
46111;BME280;31849;55.992;37.252;2023-01-30T21:08:27;97058.50;;;-0.09;63.99
46111;BME280;31849;55.992;37.252;2023-01-30T21:13:32;97055.94;;;-0.08;63.86
46111;BME280;31849;55.992;37.252;2023-01-30T21:18:39;97051.69;;;-0.20;64.00
46111;BME280;31849;55.992;37.252;2023-01-30T21:23:43;97059.38;;;-0.12;63.65
46111;BME280;31849;55.992;37.252;2023-01-30T21:28:47;97055.09;;;-0.08;63.63
46111;BME280;31849;55.992;37.252;2023-01-30T21:33:55;97064.47;;;0.04;63.23
46111;BME280;31849;55.992;37.252;2023-01-30T21:38:59;97040.63;;;-0.03;63.51
46111;BME280;31849;55.992;37.252;2023-01-30T21:44:17;97052.56;;;-0.13;63.76
46111;BME280;31849;55.992;37.252;2023-01-30T21:49:22;97054.25;;;-0.12;64.00
46111;BME280;31849;55.992;37.252;2023-01-30T21:54:27;97061.09;;;0.06;63.31
46111;BME280;31849;55.992;37.252;2023-01-30T21:59:31;97060.22;;;-0.05;63.29
46111;BME280;31849;55.992;37.252;2023-01-30T22:04:36;97062.75;;;-0.19;63.69
46111;BME280;31849;55.992;37.252;2023-01-30T22:09:40;97049.13;;;-0.26;63.93
46111;BME280;31849;55.992;37.252;2023-01-30T22:14:44;97059.31;;;-0.29;64.30
46111;BME280;31849;55.992;37.252;2023-01-30T22:19:49;97054.25;;;-0.10;63.80
46111;BME280;31849;55.992;37.252;2023-01-30T22:24:53;97061.91;;;-0.15;63.68
46111;BME280;31849;55.992;37.252;2023-01-30T22:29:57;97054.22;;;-0.30;64.37
46111;BME280;31849;55.992;37.252;2023-01-30T22:35:02;97054.25;;;-0.07;63.89
46111;BME280;31849;55.992;37.252;2023-01-30T22:40:07;97047.44;;;-0.04;64.02
46111;BME280;31849;55.992;37.252;2023-01-30T22:45:11;97051.69;;;-0.16;64.06
46111;BME280;31849;55.992;37.252;2023-01-30T22:50:16;97058.50;;;-0.28;64.61
46111;BME280;31849;55.992;37.252;2023-01-30T22:55:20;97061.88;;;-0.23;63.62
46111;BME280;31849;55.992;37.252;2023-01-30T23:00:23;97060.22;;;-0.16;63.79
46111;BME280;31849;55.992;37.252;2023-01-30T23:05:28;97060.22;;;-0.19;63.91
46111;BME280;31849;55.992;37.252;2023-01-30T23:10:31;97060.22;;;-0.19;64.08
46111;BME280;31849;55.992;37.252;2023-01-30T23:15:35;97058.50;;;-0.19;63.47
46111;BME280;31849;55.992;37.252;2023-01-30T23:20:45;97058.50;;;-0.22;64.06
46111;BME280;31849;55.992;37.252;2023-01-30T23:25:50;97061.00;;;-0.40;65.00
46111;BME280;31849;55.992;37.252;2023-01-30T23:30:53;97075.47;;;-0.36;64.64
46111;BME280;31849;55.992;37.252;2023-01-30T23:36:01;97075.53;;;-0.25;64.19
46111;BME280;31849;55.992;37.252;2023-01-30T23:41:07;97078.03;;;-0.28;64.16
46111;BME280;31849;55.992;37.252;2023-01-30T23:46:17;97066.97;;;-0.32;64.66
46111;BME280;31849;55.992;37.252;2023-01-30T23:51:24;97067.88;;;-0.14;63.94
46111;BME280;31849;55.992;37.252;2023-01-30T23:56:30;97078.09;;;-0.11;63.77
